createdAt,value
2019-03-15T10:13:11.082Z,689.00
2019-03-15T10:13:12.871Z,688.00
2019-03-15T10:13:14.873Z,687.00
2019-03-15T10:13:16.869Z,687.00
2019-03-15T10:13:18.889Z,685.00
2019-03-15T10:13:20.871Z,684.00
2019-03-15T10:13:22.870Z,686.00
2019-03-15T10:13:24.879Z,688.00
2019-03-15T10:13:27.859Z,689.00
2019-03-15T10:13:29.863Z,688.00
2019-03-15T10:13:31.858Z,686.00
2019-03-15T10:13:34.882Z,689.00
2019-03-15T10:13:36.890Z,698.00
2019-03-15T10:13:38.869Z,713.00
2019-03-15T10:13:41.864Z,745.00
2019-03-15T10:13:43.869Z,810.00
2019-03-15T10:13:45.862Z,840.00
2019-03-15T10:13:47.876Z,847.00
2019-03-15T10:13:50.875Z,848.00
2019-03-15T10:13:52.869Z,827.00
2019-03-15T10:13:54.865Z,806.00
2019-03-15T10:13:57.860Z,788.00
2019-03-15T10:14:02.249Z,773.00
2019-03-15T10:14:03.924Z,769.00
2019-03-15T10:14:05.875Z,757.00
2019-03-15T10:14:07.883Z,750.00
2019-03-15T10:14:09.853Z,746.00
2019-03-15T10:14:11.866Z,746.00
2019-03-15T10:14:13.965Z,742.00
2019-03-15T10:15:20.125Z,755.00
2019-03-15T10:15:21.867Z,785.00
2019-03-15T10:15:26.408Z,782.00
2019-03-15T10:15:28.880Z,777.00
2019-03-15T10:15:30.920Z,776.00
2019-03-15T10:15:32.927Z,774.00
2019-03-15T10:15:34.873Z,768.00
2019-03-15T10:15:36.916Z,764.00
2019-03-15T10:15:39.024Z,759.00
2019-03-15T10:15:40.943Z,754.00
2019-03-15T10:15:43.882Z,749.00
2019-03-15T10:15:45.922Z,745.00
2019-03-15T10:15:47.978Z,740.00
2019-03-15T10:15:49.931Z,737.00
2019-03-15T10:15:55.491Z,739.00
2019-03-15T10:15:57.852Z,738.00
2019-03-15T10:15:59.870Z,733.00
2019-03-15T10:16:01.876Z,729.00
2019-03-15T10:16:03.869Z,722.00
2019-03-15T10:16:06.852Z,712.00
2019-03-15T10:16:08.775Z,700.00
2019-03-15T10:16:10.478Z,665.00
2019-03-15T10:16:12.893Z,648.00
2019-03-15T10:16:15.860Z,641.00
2019-03-15T10:16:17.854Z,642.00
2019-03-15T10:16:19.854Z,641.00
2019-03-15T10:16:22.882Z,641.00
2019-03-15T10:16:24.875Z,645.00
2019-03-15T10:16:26.895Z,645.00
2019-03-15T10:16:28.871Z,650.00
2019-03-15T10:16:31.873Z,647.00
2019-03-15T10:16:33.870Z,649.00
2019-03-15T10:16:35.866Z,649.00
2019-03-15T10:16:38.868Z,650.00
2019-03-15T10:16:40.868Z,650.00
2019-03-15T10:16:42.865Z,654.00
2019-03-15T10:16:45.863Z,655.00
2019-03-15T10:16:47.914Z,656.00
2019-03-15T10:16:49.875Z,660.00
2019-03-15T10:16:51.858Z,663.00
2019-03-15T10:16:54.884Z,663.00
2019-03-15T10:16:56.858Z,664.00
2019-03-15T10:16:58.857Z,666.00
2019-03-15T10:17:01.960Z,667.00
2019-03-15T10:17:03.856Z,667.00
2019-03-15T10:17:05.876Z,668.00
2019-03-15T10:17:08.879Z,668.00
2019-03-15T10:17:10.875Z,668.00
2019-03-15T10:17:12.880Z,668.00
2019-03-15T10:17:14.884Z,670.00
2019-03-15T10:17:17.883Z,689.00
2019-03-15T10:17:22.953Z,711.00
2019-03-15T10:17:24.873Z,781.00
2019-03-15T10:17:26.868Z,877.00
2019-03-15T10:17:28.877Z,915.00
2019-03-15T10:17:31.866Z,915.00
2019-03-15T10:17:33.889Z,890.00
2019-03-15T10:17:35.908Z,873.00
2019-03-15T10:17:37.868Z,851.00
2019-03-15T10:17:40.861Z,843.00
2019-03-15T10:17:42.857Z,835.00
2019-03-15T10:17:44.858Z,816.00
2019-03-15T10:17:47.855Z,811.00
2019-03-15T10:17:49.860Z,800.00
2019-03-15T10:17:51.861Z,785.00
2019-03-15T10:17:54.866Z,781.00
2019-03-15T10:17:56.860Z,769.00
2019-03-15T10:17:58.883Z,762.00
2019-03-15T10:18:00.868Z,746.00
2019-03-15T10:18:03.884Z,711.00
2019-03-15T10:18:05.864Z,701.00
2019-03-15T10:18:07.900Z,698.00
2019-03-15T10:18:10.861Z,701.00
2019-03-15T10:18:12.870Z,697.00
2019-03-15T10:18:14.865Z,700.00
2019-03-15T10:18:17.866Z,699.00
2019-03-15T10:18:19.888Z,701.00
2019-03-15T10:18:21.862Z,699.00
2019-03-15T10:18:23.909Z,697.00
2019-03-15T10:18:26.858Z,693.00
2019-03-15T10:18:28.863Z,688.00
2019-03-15T10:18:30.857Z,686.00
2019-03-15T10:18:33.854Z,685.00
2019-03-15T10:18:35.860Z,686.00
2019-03-15T10:18:37.861Z,686.00
2019-03-15T10:18:40.877Z,685.00
2019-03-15T10:18:42.876Z,681.00
2019-03-15T10:18:44.872Z,684.00
2019-03-15T10:18:50.252Z,686.00
2019-03-15T10:18:51.875Z,688.00
2019-03-15T10:18:53.866Z,685.00
2019-03-15T10:18:56.861Z,683.00
2019-03-15T10:18:58.866Z,683.00
2019-03-15T10:19:00.865Z,682.00
2019-03-15T10:19:03.860Z,681.00
2019-03-15T10:19:05.873Z,682.00
2019-03-15T10:19:07.854Z,683.00
2019-03-15T10:19:09.889Z,682.00
2019-03-15T10:19:12.915Z,681.00
2019-03-15T10:19:14.874Z,679.00
2019-03-15T10:19:16.875Z,680.00
2019-03-15T10:19:19.882Z,681.00
2019-03-15T10:19:21.906Z,681.00
2019-03-15T10:19:23.868Z,683.00
2019-03-15T10:19:29.527Z,686.00
2019-03-15T10:19:31.875Z,696.00
2019-03-15T10:19:33.862Z,706.00
2019-03-15T10:19:35.877Z,732.00
2019-03-15T10:19:37.876Z,739.00
2019-03-15T10:19:39.870Z,745.00
2019-03-15T10:19:42.868Z,736.00
2019-03-15T10:19:44.869Z,737.00
2019-03-15T10:19:46.887Z,735.00
2019-03-15T10:19:48.864Z,729.00
2019-03-15T10:19:51.863Z,727.00
2019-03-15T10:19:53.855Z,722.00
2019-03-15T10:19:55.876Z,714.00
2019-03-15T10:19:58.874Z,711.00
2019-03-15T10:20:00.874Z,711.00
2019-03-15T10:21:09.335Z,692.00
2019-03-15T10:21:10.876Z,689.00
2019-03-15T10:21:12.876Z,688.00
2019-03-15T10:21:14.872Z,688.00
2019-03-15T10:21:16.872Z,688.00
2019-03-15T10:21:19.867Z,686.00
2019-03-15T10:21:21.870Z,686.00
2019-03-15T10:21:23.867Z,685.00
2019-03-15T10:21:25.865Z,686.00
2019-03-15T10:21:28.873Z,683.00
2019-03-15T10:21:30.883Z,687.00
2019-03-15T10:21:32.881Z,702.00
2019-03-15T10:21:35.885Z,721.00
2019-03-15T10:21:37.868Z,757.00
2019-03-15T10:21:39.872Z,752.00
2019-03-15T10:21:42.867Z,773.00
2019-03-15T10:21:44.881Z,754.00
2019-03-15T10:21:46.879Z,741.00
2019-03-15T10:21:48.881Z,750.00
2019-03-15T10:21:51.872Z,769.00
2019-03-15T10:21:53.869Z,759.00
2019-03-15T10:21:55.868Z,875.00
2019-03-15T10:21:58.952Z,1068.00
2019-03-15T10:22:00.880Z,1144.00
2019-03-15T10:22:02.880Z,1132.00
2019-03-15T10:22:04.875Z,1091.00
2019-03-15T10:22:07.885Z,1011.00
2019-03-15T10:22:09.867Z,923.00
2019-03-15T10:22:11.866Z,878.00
2019-03-15T10:22:14.872Z,834.00
2019-03-15T10:22:16.894Z,814.00
2019-03-15T10:22:18.882Z,801.00
2019-03-15T10:22:21.891Z,791.00
2019-03-15T10:22:23.948Z,782.00
2019-03-15T10:22:25.880Z,770.00
2019-03-15T10:22:27.884Z,762.00
2019-03-15T10:22:30.871Z,751.00
2019-03-15T10:22:32.870Z,742.00
2019-03-15T10:22:34.873Z,737.00
2019-03-15T10:22:37.858Z,726.00
2019-03-15T10:22:39.895Z,708.00
2019-03-15T10:22:41.901Z,690.00
2019-03-15T10:22:44.876Z,666.00
2019-03-15T10:23:03.921Z,652.00
2019-03-15T10:23:05.275Z,670.00
2019-03-15T10:23:06.059Z,662.00
2019-03-15T10:23:08.028Z,664.00
2019-03-15T10:23:09.876Z,665.00
2019-03-15T10:23:11.871Z,666.00
2019-03-15T10:23:13.867Z,668.00
2019-03-15T10:23:16.996Z,669.00
2019-03-15T10:23:18.861Z,670.00
2019-03-15T10:23:20.888Z,674.00
2019-03-15T10:23:23.883Z,674.00
2019-03-15T10:23:25.881Z,674.00
2019-03-15T10:23:27.877Z,675.00
2019-03-15T10:23:29.873Z,675.00
2019-03-15T10:23:32.887Z,675.00
2019-03-15T10:23:34.866Z,674.00
2019-03-15T10:23:36.862Z,674.00
2019-03-15T10:23:39.882Z,674.00
2019-03-15T10:23:41.886Z,672.00
2019-03-15T10:23:43.879Z,671.00
2019-03-15T10:23:46.885Z,670.00
2019-03-15T10:23:48.874Z,670.00
2019-03-15T10:23:50.873Z,669.00
2019-03-15T10:23:52.883Z,669.00
2019-03-15T10:23:55.885Z,670.00
2019-03-15T10:23:57.891Z,669.00
2019-03-15T10:23:59.935Z,668.00
2019-03-15T10:24:02.881Z,667.00
2019-03-15T10:24:04.872Z,667.00
2019-03-15T10:24:06.877Z,666.00
2019-03-15T10:24:09.881Z,664.00
2019-03-15T10:24:15.413Z,663.00
2019-03-15T10:24:17.863Z,661.00
2019-03-15T10:24:19.876Z,660.00
2019-03-15T10:24:21.872Z,659.00
2019-03-15T10:24:23.882Z,657.00
2019-03-15T10:24:25.889Z,656.00
2019-03-15T10:24:27.877Z,651.00
2019-03-15T10:24:29.886Z,649.00
2019-03-15T10:24:31.869Z,647.00
2019-03-15T10:24:34.868Z,649.00
2019-03-15T10:24:36.886Z,650.00
2019-03-15T10:24:38.878Z,650.00
2019-03-15T10:24:41.880Z,651.00
2019-03-15T10:24:43.867Z,653.00
2019-03-15T10:24:45.859Z,652.00
2019-03-15T10:24:48.884Z,653.00
2019-03-15T10:24:50.870Z,653.00
2019-03-15T10:24:52.865Z,654.00
2019-03-15T10:24:54.874Z,654.00
2019-03-15T10:24:57.886Z,653.00
2019-03-15T10:24:59.875Z,653.00
2019-03-15T10:25:01.883Z,654.00
2019-03-15T10:25:04.869Z,654.00
2019-03-15T10:25:06.917Z,655.00
2019-03-15T10:25:08.882Z,655.00
2019-03-15T10:25:10.883Z,654.00
2019-03-15T10:25:13.895Z,655.00
2019-03-15T10:25:15.890Z,655.00
2019-03-15T10:25:17.865Z,655.00
2019-03-15T10:25:20.883Z,654.00
2019-03-15T10:25:22.872Z,654.00
2019-03-15T10:25:24.916Z,657.00
2019-03-15T10:25:27.874Z,654.00
2019-03-15T10:25:29.890Z,654.00
2019-03-15T10:25:45.583Z,653.00
2019-03-15T10:25:46.925Z,652.00
2019-03-15T10:25:51.126Z,650.00
2019-03-15T10:25:52.864Z,649.00
2019-03-15T10:25:54.876Z,649.00
2019-03-15T10:25:56.894Z,649.00
2019-03-15T10:25:59.880Z,648.00
2019-03-15T10:26:01.872Z,648.00
2019-03-15T10:26:03.869Z,648.00
2019-03-15T10:26:06.884Z,648.00
2019-03-15T10:26:08.880Z,648.00
2019-03-15T10:26:10.870Z,649.00
2019-03-15T10:26:14.967Z,648.00
2019-03-15T10:26:16.870Z,647.00
2019-03-15T10:26:18.891Z,646.00
2019-03-15T10:26:20.901Z,647.00
2019-03-15T10:26:22.870Z,647.00
2019-03-15T10:26:24.884Z,646.00
2019-03-15T10:26:26.871Z,645.00
2019-03-15T10:26:28.861Z,645.00
2019-03-15T10:26:31.989Z,644.00
2019-03-15T10:26:33.885Z,643.00
2019-03-15T10:26:35.886Z,641.00
2019-03-15T10:26:38.883Z,640.00
2019-03-15T10:26:40.905Z,639.00
2019-03-15T10:26:42.893Z,640.00
2019-03-15T10:26:45.872Z,641.00
2019-03-15T10:26:47.885Z,641.00
2019-03-15T10:26:49.878Z,641.00
2019-03-15T10:26:51.870Z,642.00
2019-03-15T10:26:54.872Z,642.00
2019-03-15T10:26:56.882Z,643.00
2019-03-15T10:26:58.875Z,644.00
2019-03-15T10:27:01.874Z,643.00
2019-03-15T10:27:03.873Z,643.00
2019-03-15T10:27:05.885Z,642.00
2019-03-15T10:27:07.877Z,642.00
2019-03-15T10:27:10.871Z,641.00
2019-03-15T10:27:12.870Z,640.00
2019-03-15T10:27:14.861Z,640.00
2019-03-15T10:27:17.890Z,640.00
2019-03-15T10:27:19.878Z,639.00
2019-03-15T10:27:21.863Z,640.00
2019-03-15T10:27:24.874Z,640.00
2019-03-15T10:27:26.175Z,639.00
2019-03-15T10:27:28.865Z,638.00
2019-03-15T10:27:30.882Z,638.00
2019-03-15T10:27:33.877Z,638.00
2019-03-15T10:27:35.957Z,637.00
2019-03-15T10:27:37.895Z,637.00
2019-03-15T10:27:40.906Z,635.00
2019-03-15T10:27:42.880Z,635.00
2019-03-15T10:27:44.871Z,634.00
2019-03-15T10:27:46.884Z,634.00
2019-03-15T10:27:49.865Z,633.00
2019-03-15T10:27:51.886Z,633.00
2019-03-15T10:27:53.879Z,633.00
2019-03-15T10:27:56.874Z,632.00
2019-03-15T10:27:58.875Z,632.00
2019-03-15T10:28:00.860Z,633.00
2019-03-15T10:28:03.880Z,632.00
2019-03-15T10:28:05.178Z,631.00
2019-03-15T10:28:07.879Z,631.00
2019-03-15T10:28:09.876Z,630.00
2019-03-15T10:28:12.872Z,628.00
2019-03-15T10:28:14.868Z,626.00
2019-03-15T10:28:16.884Z,623.00
2019-03-15T10:28:19.881Z,619.00
2019-03-15T10:28:21.875Z,617.00
2019-03-15T10:28:23.880Z,615.00
2019-03-15T10:28:25.873Z,611.00
2019-03-15T10:28:28.867Z,609.00
2019-03-15T10:28:30.870Z,611.00
2019-03-15T10:28:32.884Z,613.00
2019-03-15T10:28:35.887Z,613.00
2019-03-15T10:28:37.879Z,615.00
2019-03-15T10:28:39.875Z,616.00
2019-03-15T10:28:42.877Z,617.00
2019-03-15T10:28:44.904Z,619.00
2019-03-15T10:28:46.890Z,619.00
2019-03-15T10:28:48.881Z,617.00
2019-03-15T10:28:51.876Z,618.00
2019-03-15T10:28:53.869Z,618.00
2019-03-15T10:28:55.871Z,618.00
2019-03-15T10:28:58.862Z,619.00
2019-03-15T10:29:14.296Z,637.00
2019-03-15T10:29:15.258Z,667.00
2019-03-15T10:29:19.557Z,782.00
2019-03-15T10:29:21.875Z,748.00
2019-03-15T10:29:23.866Z,731.00
2019-03-15T10:29:25.883Z,713.00
2019-03-15T10:29:27.880Z,704.00
2019-03-15T10:29:30.883Z,697.00
2019-03-15T10:29:32.874Z,694.00
2019-03-15T10:29:34.876Z,690.00
2019-03-15T10:29:37.868Z,686.00
2019-03-15T10:29:39.865Z,678.00
2019-03-15T10:29:41.893Z,671.00
2019-03-15T10:29:44.883Z,659.00
2019-03-15T10:29:46.878Z,655.00
2019-03-15T10:29:48.871Z,657.00
2019-03-15T10:29:50.867Z,657.00
2019-03-15T10:29:53.868Z,656.00
2019-03-15T10:29:55.867Z,653.00
2019-03-15T10:29:57.857Z,650.00
2019-03-15T10:30:00.886Z,646.00
2019-03-15T10:30:02.886Z,647.00
2019-03-15T10:30:04.882Z,647.00
2019-03-15T10:30:07.867Z,645.00
2019-03-15T10:30:09.177Z,643.00
2019-03-15T10:30:11.869Z,642.00
2019-03-15T10:30:13.866Z,642.00
2019-03-15T10:30:16.883Z,640.00
2019-03-15T10:30:18.916Z,639.00
2019-03-15T10:30:20.880Z,636.00
2019-03-15T10:30:23.872Z,634.00
2019-03-15T10:30:25.870Z,631.00
2019-03-15T10:30:27.868Z,630.00
2019-03-15T10:30:29.865Z,630.00
2019-03-15T10:30:32.887Z,627.00
2019-03-15T10:30:34.883Z,627.00
2019-03-15T10:30:36.880Z,627.00
2019-03-15T10:30:39.872Z,634.00
2019-03-15T10:30:41.869Z,643.00
2019-03-15T10:30:43.865Z,650.00
2019-03-15T10:30:46.862Z,659.00
2019-03-15T10:30:48.883Z,670.00
2019-03-15T10:30:50.877Z,681.00
2019-03-15T10:30:52.870Z,694.00
2019-03-15T10:30:55.863Z,693.00
2019-03-15T10:30:57.882Z,687.00
2019-03-15T10:30:59.878Z,670.00
2019-03-15T10:31:02.869Z,667.00
2019-03-15T10:31:04.872Z,668.00
2019-03-15T10:31:06.862Z,669.00
2019-03-15T10:31:08.882Z,697.00
2019-03-15T10:31:11.873Z,715.00
2019-03-15T10:31:13.871Z,731.00
2019-03-15T10:31:15.899Z,737.00
2019-03-15T10:31:18.863Z,748.00
2019-03-15T10:31:20.863Z,747.00
2019-03-15T10:31:22.865Z,741.00
2019-03-15T10:31:26.824Z,799.00
2019-03-15T10:31:28.868Z,930.00
2019-03-15T10:31:30.867Z,1045.00
2019-03-15T10:31:32.888Z,1106.00
2019-03-15T10:31:34.863Z,1073.00
2019-03-15T10:31:36.867Z,1031.00
2019-03-15T10:31:38.883Z,970.00
2019-03-15T10:31:41.877Z,893.00
2019-03-15T10:31:43.940Z,837.00
2019-03-15T10:31:45.860Z,811.00
2019-03-15T10:31:48.943Z,803.00
2019-03-15T10:32:55.141Z,634.00
2019-03-15T10:32:56.869Z,610.00
2019-03-15T10:32:58.878Z,590.00
2019-03-15T10:33:00.904Z,580.00
2019-03-15T10:33:02.874Z,598.00
2019-03-15T10:33:04.872Z,601.00
2019-03-15T10:33:06.877Z,606.00
2019-03-15T10:33:09.949Z,602.00
2019-03-15T10:33:11.873Z,603.00
2019-03-15T10:33:13.864Z,606.00
2019-03-15T10:33:16.892Z,606.00
2019-03-15T10:33:18.886Z,600.00
2019-03-15T10:33:20.888Z,602.00
2019-03-15T10:33:23.893Z,602.00
2019-03-15T10:33:25.904Z,598.00
2019-03-15T10:33:27.886Z,601.00
2019-03-15T10:33:29.875Z,603.00
2019-03-15T10:33:32.874Z,603.00
2019-03-15T10:33:34.878Z,605.00
2019-03-15T10:33:49.580Z,605.00
2019-03-15T10:33:50.200Z,610.00
2019-03-15T10:33:52.866Z,622.00
2019-03-15T10:33:54.879Z,626.00
2019-03-15T10:33:56.950Z,624.00
2019-03-15T10:33:58.871Z,618.00
2019-03-15T10:34:00.930Z,618.00
2019-03-15T10:34:05.682Z,612.00
2019-03-15T10:34:07.894Z,621.00
2019-03-15T10:34:09.867Z,618.00
2019-03-15T10:34:11.880Z,619.00
2019-03-15T10:34:13.890Z,628.00
2019-03-15T10:34:15.880Z,636.00
2019-03-15T10:34:18.874Z,643.00
2019-03-15T10:34:20.869Z,644.00
2019-03-15T10:34:22.866Z,643.00
2019-03-15T10:34:25.888Z,647.00
2019-03-15T10:34:27.884Z,646.00
2019-03-15T10:34:29.879Z,645.00
2019-03-15T10:34:31.869Z,643.00
2019-03-15T10:34:35.787Z,642.00
2019-03-15T10:34:37.946Z,638.00
2019-03-15T10:34:39.871Z,636.00
2019-03-15T10:34:41.875Z,633.00
2019-03-15T10:34:43.869Z,631.00
2019-03-15T10:34:45.865Z,633.00
2019-03-15T10:35:52.139Z,613.00
2019-03-15T10:35:53.885Z,605.00
2019-03-15T10:35:55.900Z,613.00
2019-03-15T10:35:57.872Z,605.00
2019-03-15T10:36:20.137Z,661.00
2019-03-15T10:36:21.870Z,611.00
2019-03-15T10:36:23.862Z,608.00
2019-03-15T10:36:25.876Z,596.00
2019-03-15T10:36:27.885Z,598.00
2019-03-15T10:36:29.872Z,600.00
2019-03-15T10:36:34.537Z,595.00
2019-03-15T10:36:35.870Z,592.00
2019-03-15T10:36:37.901Z,594.00
2019-03-15T10:36:40.882Z,592.00
2019-03-15T10:36:42.880Z,588.00
2019-03-15T10:36:44.876Z,584.00
2019-03-15T10:36:47.871Z,587.00
2019-03-15T10:36:49.177Z,590.00
2019-03-15T10:36:51.873Z,585.00
2019-03-15T10:36:53.877Z,594.00
2019-03-15T10:36:56.867Z,597.00
2019-03-15T10:36:58.865Z,591.00
2019-03-15T10:37:00.884Z,579.00
2019-03-15T10:37:06.231Z,563.00
2019-03-15T10:37:07.896Z,546.00
2019-03-15T10:37:09.865Z,532.00
2019-03-15T10:37:11.882Z,532.00
2019-03-15T10:37:13.878Z,541.00
2019-03-15T10:37:15.875Z,541.00
2019-03-15T10:37:17.895Z,544.00
2019-03-15T10:37:19.868Z,549.00
2019-03-15T10:37:21.901Z,556.00
2019-03-15T10:37:23.863Z,558.00
2019-03-15T10:37:26.886Z,561.00
2019-03-15T10:37:28.863Z,603.00
2019-03-15T10:37:30.865Z,647.00
2019-03-15T10:37:32.874Z,687.00
2019-03-15T10:37:35.886Z,726.00
2019-03-15T10:37:37.887Z,776.00
2019-03-15T10:37:39.886Z,853.00
2019-03-15T10:37:42.885Z,944.00
2019-03-15T10:37:44.884Z,914.00
2019-03-15T10:37:46.888Z,878.00
2019-03-15T10:37:49.877Z,846.00
2019-03-15T10:37:51.892Z,822.00
2019-03-15T10:37:53.867Z,796.00
2019-03-15T10:37:55.906Z,796.00
2019-03-15T10:37:58.882Z,774.00
2019-03-15T10:38:00.897Z,755.00
2019-03-15T10:38:02.876Z,719.00
2019-03-15T10:38:05.902Z,716.00
2019-03-15T10:38:07.878Z,707.00
2019-03-15T10:38:09.886Z,686.00
2019-03-15T10:38:12.863Z,685.00
2019-03-15T10:38:16.718Z,676.00
2019-03-15T10:38:18.885Z,671.00
2019-03-15T10:38:20.873Z,669.00
2019-03-15T10:38:22.881Z,665.00
2019-03-15T10:38:24.862Z,663.00
2019-03-15T10:38:26.876Z,659.00
2019-03-15T10:38:28.884Z,655.00
2019-03-15T10:38:30.885Z,653.00
2019-03-15T10:38:32.885Z,647.00
2019-03-15T10:38:34.879Z,643.00
2019-03-15T10:38:37.878Z,641.00
2019-03-15T10:38:39.874Z,642.00
2019-03-15T10:38:41.872Z,642.00
2019-03-15T10:38:44.868Z,644.00
2019-03-15T10:38:46.890Z,643.00
2019-03-15T10:38:48.880Z,642.00
2019-03-15T10:38:51.877Z,641.00
2019-03-15T10:38:53.873Z,639.00
2019-03-15T10:38:55.871Z,638.00
2019-03-15T10:38:57.866Z,634.00
2019-03-15T10:39:00.864Z,632.00
2019-03-15T10:39:02.894Z,631.00
2019-03-15T10:39:04.887Z,631.00
2019-03-15T10:39:07.887Z,628.00
2019-03-15T10:39:09.885Z,632.00
2019-03-15T10:39:11.879Z,648.00
2019-03-15T10:39:14.883Z,686.00
2019-03-15T10:39:16.898Z,760.00
2019-03-15T10:39:18.874Z,818.00
2019-03-15T10:39:20.879Z,794.00
2019-03-15T10:39:23.870Z,806.00
2019-03-15T10:39:25.868Z,796.00
2019-03-15T10:39:27.873Z,790.00
2019-03-15T10:39:30.908Z,802.00
2019-03-15T10:39:32.921Z,837.00
2019-03-15T10:39:34.892Z,873.00
2019-03-15T10:39:37.958Z,913.00
2019-03-15T10:39:39.190Z,970.00
2019-03-15T10:39:41.881Z,1014.00
2019-03-15T10:39:43.895Z,985.00
2019-03-15T10:39:46.876Z,960.00
2019-03-15T10:39:48.872Z,934.00
2019-03-15T10:39:50.865Z,920.00
2019-03-15T10:39:53.884Z,908.00
2019-03-15T10:39:55.886Z,897.00
2019-03-15T10:39:57.888Z,898.00
2019-03-15T10:40:00.612Z,895.00
2019-03-15T10:40:02.892Z,885.00
2019-03-15T10:40:04.883Z,868.00
2019-03-15T10:40:06.884Z,858.00
2019-03-15T10:40:09.893Z,842.00
2019-03-15T10:40:11.893Z,794.00
2019-03-15T10:40:13.887Z,720.00
2019-03-15T10:40:16.866Z,726.00
2019-03-15T10:40:18.864Z,724.00
2019-03-15T10:40:20.895Z,719.00
2019-03-15T10:40:22.889Z,713.00
2019-03-15T10:40:25.977Z,707.00
2019-03-15T10:40:27.903Z,696.00
2019-03-15T10:40:29.890Z,694.00
2019-03-15T10:40:32.871Z,691.00
2019-03-15T10:40:34.869Z,686.00
2019-03-15T10:40:36.913Z,677.00
2019-03-15T10:40:39.901Z,673.00
2019-03-15T10:40:41.896Z,670.00
2019-03-15T10:40:43.905Z,669.00
2019-03-15T10:40:45.899Z,667.00
2019-03-15T10:40:48.872Z,660.00
2019-03-15T10:40:50.866Z,654.00
2019-03-15T10:40:52.885Z,650.00
2019-03-15T10:40:55.896Z,646.00
2019-03-15T10:41:01.055Z,642.00
2019-03-15T10:41:02.885Z,651.00
2019-03-15T10:41:04.886Z,707.00
2019-03-15T10:41:06.871Z,867.00
2019-03-15T10:41:08.875Z,1173.00
2019-03-15T10:41:11.869Z,1378.00
2019-03-15T10:41:13.884Z,1329.00
2019-03-15T10:41:15.885Z,1280.00
2019-03-15T10:41:18.884Z,1238.00
2019-03-15T10:41:20.884Z,1206.00
2019-03-15T10:41:22.878Z,1173.00
2019-03-15T10:41:24.876Z,1126.00
2019-03-15T10:41:27.884Z,1037.00
2019-03-15T10:41:29.875Z,910.00
2019-03-15T10:41:31.863Z,890.00
2019-03-15T10:41:38.097Z,931.00
2019-03-15T10:41:58.112Z,863.00
2019-03-15T10:41:59.886Z,763.00
2019-03-15T10:42:01.902Z,750.00
2019-03-15T10:42:04.897Z,734.00
2019-03-15T10:42:06.906Z,723.00
2019-03-15T10:42:08.948Z,709.00
2019-03-15T10:42:11.885Z,697.00
2019-03-15T10:42:13.888Z,682.00
2019-03-15T10:42:15.895Z,672.00
2019-03-15T10:42:17.883Z,670.00
2019-03-15T10:42:20.912Z,722.00
2019-03-15T10:42:22.928Z,781.00
2019-03-15T10:42:24.895Z,825.00
2019-03-15T10:42:27.976Z,887.00
2019-03-15T10:42:29.891Z,904.00
2019-03-15T10:42:31.873Z,894.00
2019-03-15T10:42:34.871Z,866.00
2019-03-15T10:42:36.886Z,834.00
2019-03-15T10:42:38.881Z,811.00
2019-03-15T10:42:40.891Z,777.00
2019-03-15T10:42:43.879Z,748.00
2019-03-15T10:42:45.890Z,757.00
2019-03-15T10:42:47.900Z,733.00
2019-03-15T10:42:50.896Z,724.00
2019-03-15T10:42:55.558Z,720.00
2019-03-15T10:42:57.874Z,708.00
2019-03-15T10:43:00.071Z,703.00
2019-03-15T10:43:01.874Z,698.00
2019-03-15T10:43:03.891Z,689.00
2019-03-15T10:43:06.888Z,684.00
2019-03-15T10:43:08.879Z,682.00
2019-03-15T10:43:10.880Z,681.00
2019-03-15T10:43:13.878Z,677.00
2019-03-15T10:43:15.943Z,673.00
2019-03-15T10:43:17.951Z,670.00
2019-03-15T10:43:19.891Z,665.00
2019-03-15T10:43:22.937Z,657.00
2019-03-15T10:43:24.884Z,657.00
2019-03-15T10:43:26.884Z,659.00
2019-03-15T10:43:30.027Z,657.00
2019-03-15T10:43:31.921Z,657.00
2019-03-15T10:43:33.879Z,657.00
2019-03-15T10:43:36.897Z,655.00
2019-03-15T10:43:38.898Z,655.00
2019-03-15T10:43:40.882Z,653.00
2019-03-15T10:43:42.886Z,654.00
2019-03-15T10:43:45.885Z,663.00
2019-03-15T10:43:47.883Z,683.00
2019-03-15T10:43:49.880Z,706.00
2019-03-15T10:43:52.875Z,737.00
2019-03-15T10:43:54.879Z,794.00
2019-03-15T10:43:56.874Z,893.00
2019-03-15T10:43:59.882Z,929.00
2019-03-15T10:44:04.044Z,903.00
2019-03-15T10:44:06.889Z,839.00
2019-03-15T10:44:08.880Z,818.00
2019-03-15T10:44:10.891Z,801.00
2019-03-15T10:44:12.886Z,790.00
2019-03-15T10:44:15.869Z,778.00
2019-03-15T10:44:17.888Z,767.00
2019-03-15T10:44:19.890Z,756.00
2019-03-15T10:44:22.872Z,742.00
2019-03-15T10:44:24.886Z,709.00
2019-03-15T10:44:26.891Z,690.00
2019-03-15T10:44:28.899Z,681.00
2019-03-15T10:44:31.896Z,684.00
2019-03-15T10:44:33.886Z,688.00
2019-03-15T10:44:35.892Z,685.00
2019-03-15T10:44:38.894Z,681.00
2019-03-15T10:44:40.886Z,676.00
2019-03-15T10:44:42.888Z,673.00
2019-03-15T10:44:45.885Z,669.00
2019-03-15T10:44:47.665Z,665.00
2019-03-15T10:44:49.494Z,662.00
2019-03-15T10:44:51.767Z,655.00
2019-03-15T10:44:54.881Z,651.00
2019-03-15T10:44:56.881Z,638.00
2019-03-15T10:44:58.896Z,621.00
2019-03-15T10:45:01.878Z,602.00
2019-03-15T10:45:03.874Z,599.00
2019-03-15T10:45:05.878Z,597.00
2019-03-15T10:45:07.888Z,596.00
2019-03-15T10:45:10.891Z,599.00
2019-03-15T10:45:12.889Z,599.00
2019-03-15T10:45:14.884Z,600.00
2019-03-15T10:45:17.886Z,599.00
2019-03-15T10:45:19.895Z,597.00
2019-03-15T10:45:21.879Z,594.00
2019-03-15T10:45:24.879Z,594.00
2019-03-15T10:45:26.871Z,593.00
2019-03-15T10:45:28.874Z,592.00
2019-03-15T10:45:30.873Z,591.00
2019-03-15T10:45:33.871Z,590.00
2019-03-15T10:45:35.870Z,589.00
2019-03-15T10:45:37.897Z,588.00
2019-03-15T10:45:40.886Z,589.00
2019-03-15T10:45:42.892Z,589.00
2019-03-15T10:45:44.889Z,589.00
2019-03-15T10:45:47.875Z,589.00
2019-03-15T10:45:49.866Z,590.00
2019-03-15T10:45:51.882Z,589.00
2019-03-15T10:45:53.867Z,588.00
2019-03-15T10:45:56.872Z,589.00
2019-03-15T10:45:58.868Z,587.00
2019-03-15T10:46:00.883Z,588.00
2019-03-15T10:46:06.093Z,588.00
2019-03-15T10:46:08.892Z,588.00
2019-03-15T10:46:10.889Z,588.00
2019-03-15T10:46:12.878Z,588.00
2019-03-15T10:46:14.879Z,587.00
2019-03-15T10:46:16.878Z,586.00
2019-03-15T10:46:19.891Z,587.00
2019-03-15T10:46:21.867Z,586.00
2019-03-15T10:46:23.871Z,586.00
2019-03-15T10:46:26.870Z,586.00
2019-03-15T10:46:28.883Z,587.00
2019-03-15T10:46:30.872Z,586.00
2019-03-15T10:46:32.893Z,586.00
2019-03-15T10:46:35.891Z,586.00
2019-03-15T10:46:37.953Z,585.00
2019-03-15T10:46:40.649Z,585.00
2019-03-15T10:46:42.930Z,585.00
2019-03-15T10:46:44.895Z,585.00
2019-03-15T10:46:46.886Z,585.00
2019-03-15T10:46:49.872Z,585.00
2019-03-15T10:46:51.876Z,586.00
2019-03-15T10:46:53.879Z,587.00
2019-03-15T10:46:56.885Z,588.00
2019-03-15T10:46:58.883Z,587.00
2019-03-15T10:47:00.900Z,588.00
2019-03-15T10:47:02.872Z,590.00
2019-03-15T10:47:05.910Z,590.00
2019-03-15T10:47:07.881Z,591.00
2019-03-15T10:47:09.932Z,591.00
2019-03-15T10:47:12.903Z,592.00
2019-03-15T10:47:14.887Z,594.00
2019-03-15T10:47:16.886Z,595.00
2019-03-15T10:47:18.887Z,604.00
2019-03-15T10:47:21.900Z,684.00
2019-03-15T10:47:23.890Z,911.00
2019-03-15T10:47:25.883Z,1180.00
2019-03-15T10:47:29.008Z,1236.00
2019-03-15T10:47:30.888Z,1214.00
2019-03-15T10:47:32.980Z,1199.00
2019-03-15T10:47:35.877Z,1171.00
2019-03-15T10:47:37.606Z,1130.00
2019-03-15T10:47:42.155Z,1076.00
2019-03-15T10:47:44.878Z,897.00
2019-03-15T10:47:46.878Z,841.00
2019-03-15T10:47:48.869Z,822.00
2019-03-15T10:47:51.875Z,805.00
2019-03-15T10:47:53.867Z,792.00
2019-03-15T10:47:55.867Z,774.00